Time;durP1;ratioP1;P1;durP2;ratioP2;P2;SDS_P1;SDS_P2;PMS_P1;PMS_P2;Temp;Humidity;BMP_temperature;BMP_pressure;BME280_temperature;BME280_humidity;BME280_pressure;Samples;Min_cycle;Max_cycle;Signal;HPM_P1;HPM_P2
2022/03/27 00:01:28;;;;;;;;;26.50;24.25;;;;;9.87;61.67;102202.34;146602;613;47012;-70
2022/03/27 00:04:20;;;;;;;;;26.25;25.25;;;;;9.81;61.81;102213.91;146605;607;46016;-70
2022/03/27 00:07:12;;;;;;;;;32.25;28.00;;;;;9.76;60.61;102208.38;146606;567;46008;-69
2022/03/27 00:10:04;;;;;;;;;25.25;22.00;;;;;9.78;60.51;102213.66;146604;620;46027;-69
2022/03/27 00:12:56;;;;;;;;;28.25;23.25;;;;;9.80;60.51;102215.59;146606;569;46021;-69
2022/03/27 00:15:48;;;;;;;;;22.50;21.75;;;;;9.78;60.97;102214.59;146601;563;46029;-72
2022/03/27 00:18:41;;;;;;;;;22.25;22.25;;;;;9.78;60.06;102224.03;146606;601;47008;-69
2022/03/27 00:21:33;;;;;;;;;23.00;20.25;;;;;9.80;59.68;102231.16;146603;615;46016;-69
2022/03/27 00:24:25;;;;;;;;;23.75;21.00;;;;;9.84;59.75;102233.19;146607;589;46008;-71
2022/03/27 00:27:17;;;;;;;;;23.25;21.25;;;;;9.87;59.60;102237.72;146603;575;46017;-71
2022/03/27 00:30:11;;;;;;;;;26.25;21.25;;;;;9.82;60.30;102227.00;146607;630;46020;-71
2022/03/27 00:33:03;;;;;;;;;29.00;23.25;;;;;9.76;59.89;102225.63;146602;570;46913;-70
2022/03/27 00:35:55;;;;;;;;;31.25;26.75;;;;;9.74;59.97;102222.91;146605;637;46020;-70
2022/03/27 00:38:49;;;;;;;;;26.00;25.25;;;;;9.70;60.21;102224.34;146603;620;46010;-70
2022/03/27 00:41:43;;;;;;;;;28.50;25.50;;;;;9.66;60.30;102224.00;146607;798;46008;-70
2022/03/27 00:44:38;;;;;;;;;38.00;30.25;;;;;9.64;60.55;102218.69;146603;572;46016;-71
2022/03/27 00:47:30;;;;;;;;;26.75;24.75;;;;;9.64;60.05;102215.19;146607;602;46020;-70
2022/03/27 00:50:22;;;;;;;;;28.25;22.75;;;;;9.64;59.58;102220.37;146604;564;47010;-71
2022/03/27 00:53:14;;;;;;;;;25.25;20.50;;;;;9.67;59.58;102203.37;146604;597;46020;-74
2022/03/27 00:56:07;;;;;;;;;20.75;19.00;;;;;9.76;59.11;102208.38;146603;577;46016;-73
2022/03/27 00:58:58;;;;;;;;;26.25;22.75;;;;;9.81;59.36;102212.25;146603;579;47012;-73
2022/03/27 01:01:51;;;;;;;;;22.50;20.50;;;;;9.84;58.95;102203.78;146605;607;46010;-73
2022/03/27 01:04:49;;;;;;;;;25.25;21.00;;;;;9.84;58.76;102206.37;146608;645;46008;-72
2022/03/27 01:07:43;;;;;;;;;30.00;24.75;;;;;9.73;61.48;102199.47;146605;600;46912;-72
2022/03/27 01:10:36;;;;;;;;;27.50;24.00;;;;;8.53;60.75;102017.53;146607;591;46021;-73
2022/03/27 01:13:28;;;;;;;;;23.25;22.00;;;;;9.53;60.31;102208.25;146601;594;46033;-72
2022/03/27 01:16:51;;;;;;;;;21.25;19.75;;;;;9.45;60.37;102203.37;146603;563;47008;-72
2022/03/27 01:19:45;;;;;;;;;22.50;20.50;;;;;9.38;61.21;102202.78;146603;584;46010;-72
2022/03/27 01:22:37;;;;;;;;;28.25;26.00;;;;;9.30;61.74;102207.34;146607;579;46012;-72
2022/03/27 01:25:30;;;;;;;;;32.75;27.00;;;;;9.25;61.72;102198.28;146604;670;46012;-72
2022/03/27 01:28:22;;;;;;;;;29.25;26.75;;;;;9.23;62.68;102194.69;146607;574;46021;-73
2022/03/27 01:31:14;;;;;;;;;34.50;29.75;;;;;9.18;62.34;102189.13;146603;622;47010;-75
2022/03/27 01:34:07;;;;;;;;;30.50;26.75;;;;;9.14;62.26;102192.25;146605;569;46021;-70
2022/03/27 01:36:59;;;;;;;;;29.00;22.50;;;;;9.13;61.21;102194.75;146606;602;46010;-70
2022/03/27 01:39:51;;;;;;;;;28.50;25.00;;;;;9.13;61.71;102185.28;146607;598;46021;-69
2022/03/27 01:42:44;;;;;;;;;26.25;23.50;;;;;8.09;61.95;102006.16;146605;703;47010;-70
2022/03/27 01:45:36;;;;;;;;;24.50;20.00;;;;;9.14;60.67;102187.09;146607;662;46008;-71
2022/03/27 01:48:28;;;;;;;;;22.00;19.75;;;;;9.19;60.65;102190.97;146602;571;46010;-71
2022/03/27 01:51:20;;;;;;;;;27.50;23.25;;;;;9.24;60.26;102188.72;146607;569;46020;-71
2022/03/27 01:54:13;;;;;;;;;24.50;19.75;;;;;9.22;61.02;102183.44;146604;619;46028;-70
2022/03/27 01:57:07;;;;;;;;;23.00;21.00;;;;;9.22;60.67;102188.63;146605;575;46021;-69
2022/03/27 01:59:59;;;;;;;;;21.00;19.00;;;;;9.22;61.21;102192.87;146603;572;46010;-69
2022/03/27 02:02:52;;;;;;;;;19.75;17.75;;;;;9.14;61.23;102197.44;146607;611;46020;-71
2022/03/27 02:05:45;;;;;;;;;25.00;22.00;;;;;9.05;62.10;102199.28;146605;584;46010;-71
2022/03/27 02:08:37;;;;;;;;;21.25;20.25;;;;;8.97;61.15;102203.84;146605;637;46019;-70
2022/03/27 02:11:29;;;;;;;;;25.50;21.00;;;;;8.95;61.86;102207.09;146605;610;46016;-71
2022/03/27 02:14:21;;;;;;;;;23.75;21.00;;;;;8.96;61.72;102209.78;146605;570;46008;-73
2022/03/27 02:17:13;;;;;;;;;23.00;20.25;;;;;8.98;62.08;102200.47;146608;584;46913;-76
2022/03/27 02:20:05;;;;;;;;;25.25;21.75;;;;;9.00;60.97;102203.16;146607;602;46008;-73
2022/03/27 02:22:57;;;;;;;;;30.50;26.00;;;;;9.04;61.65;102210.44;146602;761;46016;-72
2022/03/27 02:25:49;;;;;;;;;25.50;23.25;;;;;9.03;62.52;102211.19;146604;575;46021;-72
2022/03/27 02:28:43;;;;;;;;;23.00;22.00;;;;;8.98;63.38;102203.06;146601;595;47012;-75
2022/03/27 02:31:35;;;;;;;;;25.50;23.25;;;;;8.94;62.97;102200.09;146602;601;46020;-74
2022/03/27 02:34:27;;;;;;;;;25.00;22.25;;;;;8.89;62.73;102204.00;146603;573;46024;-75
2022/03/27 02:37:19;;;;;;;;;24.25;21.25;;;;;8.86;63.20;102206.34;146607;599;45020;-75
2022/03/27 02:40:12;;;;;;;;;21.00;18.75;;;;;8.84;62.72;102206.19;146603;583;46012;-73
2022/03/27 02:43:05;;;;;;;;;44.00;35.50;;;;;8.87;62.42;102209.03;146608;597;47008;-71
2022/03/27 02:45:57;;;;;;;;;28.25;24.75;;;;;8.92;61.84;102210.31;146603;578;47010;-73
2022/03/27 02:48:49;;;;;;;;;24.00;21.25;;;;;8.98;61.92;102210.81;146606;598;46021;-72
2022/03/27 02:51:42;;;;;;;;;23.50;22.25;;;;;8.99;62.82;102215.22;146603;601;46010;-72
2022/03/27 02:54:34;;;;;;;;;29.00;25.75;;;;;8.97;63.07;102215.84;146606;584;46021;-72
2022/03/27 02:57:27;;;;;;;;;27.00;25.75;;;;;8.92;63.11;102212.91;146603;600;46010;-74
2022/03/27 03:00:19;;;;;;;;;25.75;22.50;;;;;8.85;63.20;102218.38;146605;615;46020;-69
2022/03/27 03:03:13;;;;;;;;;24.00;20.75;;;;;8.83;62.86;102219.03;146602;637;46017;-71
2022/03/27 03:06:09;;;;;;;;;20.00;20.00;;;;;8.75;63.68;102221.91;146607;611;46020;-68
2022/03/27 03:09:01;;;;;;;;;24.25;22.00;;;;;8.70;63.03;102217.13;146604;633;46017;-71
2022/03/27 03:11:53;;;;;;;;;22.75;20.50;;;;;8.67;63.05;102212.59;146607;615;46009;-69
2022/03/27 03:14:45;;;;;;;;;21.00;18.25;;;;;8.67;63.09;102215.16;146605;569;46912;-72
2022/03/27 03:17:38;;;;;;;;;26.00;21.75;;;;;8.68;63.07;102205.72;146607;592;46021;-72
2022/03/27 03:20:31;;;;;;;;;27.00;21.50;;;;;8.68;63.78;102214.38;146605;589;46016;-73
2022/03/27 03:23:22;;;;;;;;;25.25;22.25;;;;;8.70;62.51;102211.94;146608;657;46008;-73
2022/03/27 03:26:15;;;;;;;;;23.75;21.75;;;;;8.71;62.38;102201.72;146603;569;46017;-73
2022/03/27 03:29:07;;;;;;;;;24.75;22.25;;;;;8.68;62.63;102197.97;146602;641;46020;-73
2022/03/27 03:31:59;;;;;;;;;21.75;20.25;;;;;8.72;62.13;102205.19;146602;638;47010;-73
2022/03/27 03:34:51;;;;;;;;;25.75;23.25;;;;;8.73;62.65;102210.50;146607;582;46008;-73
2022/03/27 03:37:44;;;;;;;;;25.00;22.25;;;;;8.73;62.45;102210.50;146602;577;46016;-75
2022/03/27 03:40:37;;;;;;;;;53.25;43.00;;;;;8.73;63.01;102207.91;146607;574;46021;-73
2022/03/27 03:43:30;;;;;;;;;27.75;26.25;;;;;8.70;62.02;102207.66;146606;590;46016;-73
2022/03/27 03:46:22;;;;;;;;;29.25;25.50;;;;;8.65;61.90;102218.41;146606;564;46020;-71
2022/03/27 03:49:14;;;;;;;;;30.00;25.75;;;;;8.62;62.73;102216.47;146605;574;46010;-73
2022/03/27 03:52:07;;;;;;;;;23.50;19.50;;;;;8.59;62.56;102223.06;146604;573;47008;-71
2022/03/27 03:54:59;;;;;;;;;28.50;23.50;;;;;8.53;63.25;102224.34;146605;607;46010;-72
2022/03/27 03:57:51;;;;;;;;;24.25;23.50;;;;;8.45;63.23;102225.41;146604;622;46020;-72
2022/03/27 04:00:43;;;;;;;;;27.50;23.25;;;;;8.38;62.76;102227.31;146605;600;46010;-72
2022/03/27 04:03:35;;;;;;;;;24.00;23.00;;;;;8.36;63.31;102223.72;146608;593;46008;-72
2022/03/27 04:06:28;;;;;;;;;25.00;22.25;;;;;8.31;62.76;102216.44;146625;569;45912;-73
2022/03/27 04:09:20;;;;;;;;;25.25;22.75;;;;;8.28;64.19;102218.78;146627;571;45008;-72
2022/03/27 04:12:13;;;;;;;;;35.75;31.50;;;;;8.23;64.00;102217.50;146626;606;45016;-70
2022/03/27 04:15:05;;;;;;;;;25.75;24.00;;;;;8.27;63.33;102229.00;146625;572;45020;-69
2022/03/27 04:18:00;;;;;;;;;27.50;25.50;;;;;8.26;63.79;102220.34;146627;735;46008;-70
2022/03/27 04:20:52;;;;;;;;;21.00;20.25;;;;;8.26;63.53;102220.34;146630;624;45024;-71
2022/03/27 04:23:44;;;;;;;;;24.00;20.25;;;;;8.26;64.73;102228.09;146627;601;45017;-74
2022/03/27 04:26:39;;;;;;;;;22.50;19.00;;;;;8.20;65.31;102227.59;146625;618;45020;-73
2022/03/27 04:29:31;;;;;;;;;23.25;19.75;;;;;8.13;66.63;102229.50;146627;681;45013;-74
2022/03/27 04:32:23;;;;;;;;;29.25;24.25;;;;;8.06;67.25;102222.91;146628;625;45021;-74
2022/03/27 04:35:15;;;;;;;;;27.50;22.00;;;;;8.02;65.71;102231.19;146626;563;46016;-73
2022/03/27 04:38:07;;;;;;;;;25.00;22.50;;;;;8.03;66.17;102232.97;146628;641;45020;-74
2022/03/27 04:40:59;;;;;;;;;21.50;19.75;;;;;8.08;64.68;102236.87;146629;585;45008;-71
2022/03/27 04:43:52;;;;;;;;;28.50;22.25;;;;;8.17;64.67;102239.34;146627;769;45008;-71
2022/03/27 04:46:44;;;;;;;;;23.50;20.25;;;;;8.28;64.19;102236.87;146628;608;46012;-71
2022/03/27 04:49:37;;;;;;;;;38.75;30.75;;;;;8.46;63.89;102242.72;146628;711;45020;-70
2022/03/27 04:52:29;;;;;;;;;30.25;29.75;;;;;8.64;63.46;102238.19;146625;632;45024;-69
2022/03/27 04:55:22;;;;;;;;;34.25;29.75;;;;;8.82;63.53;102244.00;146628;577;45020;-67
2022/03/27 04:58:16;;;;;;;;;27.00;26.75;;;;;8.92;63.01;102256.00;146626;577;45016;-67
2022/03/27 05:01:08;;;;;;;;;24.75;21.50;;;;;9.03;63.12;102252.59;146628;587;45021;-68
2022/03/27 05:04:00;;;;;;;;;26.00;19.75;;;;;9.40;63.21;102252.97;146621;620;45911;-68
2022/03/27 05:06:52;;;;;;;;;27.25;24.75;;;;;9.94;62.43;102255.56;146608;564;46008;-68
2022/03/27 05:09:44;;;;;;;;;36.75;33.00;;;;;10.55;60.55;102254.19;146604;581;46016;-68
2022/03/27 05:12:36;;;;;;;;;28.25;24.25;;;;;11.20;59.48;102258.19;146608;618;46020;-69
2022/03/27 05:15:29;;;;;;;;;29.00;23.50;;;;;11.96;57.93;102257.63;146603;630;46017;-69
2022/03/27 05:18:21;;;;;;;;;32.00;27.75;;;;;12.67;56.11;102254.63;146604;626;46020;-69
2022/03/27 05:21:13;;;;;;;;;26.75;24.75;;;;;13.27;54.86;102256.94;146604;588;46017;-70
2022/03/27 05:24:08;;;;;;;;;31.75;25.50;;;;;13.77;53.12;102258.31;146605;585;46021;-70
2022/03/27 05:27:01;;;;;;;;;27.50;26.00;;;;;14.11;51.83;102269.12;146601;577;47012;-69
2022/03/27 05:29:53;;;;;;;;;24.00;22.50;;;;;14.26;51.04;102264.84;146607;666;46021;-72
2022/03/27 05:32:45;;;;;;;;;24.75;23.50;;;;;14.27;50.70;102266.69;146605;632;46016;-69
2022/03/27 05:35:38;;;;;;;;;26.25;24.25;;;;;14.20;50.78;102261.88;146604;586;46020;-69
2022/03/27 05:38:30;;;;;;;;;35.00;31.75;;;;;14.12;50.72;102270.06;146602;680;46016;-68
2022/03/27 05:41:22;;;;;;;;;42.00;34.50;;;;;14.04;50.94;102261.75;146606;570;46020;-70
2022/03/27 05:44:14;;;;;;;;;47.50;39.50;;;;;14.06;51.24;102267.97;146604;588;47011;-69
2022/03/27 05:47:06;;;;;;;;;52.50;42.00;;;;;14.08;51.58;102274.16;146606;604;46008;-70
2022/03/27 05:49:58;;;;;;;;;52.25;41.75;;;;;14.11;51.66;102266.53;146602;672;46016;-67
2022/03/27 05:52:50;;;;;;;;;49.50;40.25;;;;;14.14;51.63;102276.25;146603;564;47009;-68
2022/03/27 05:55:42;;;;;;;;;51.50;43.00;;;;;14.19;51.54;102269.63;146601;577;46016;-67
2022/03/27 05:58:35;;;;;;;;;50.50;40.00;;;;;14.24;50.82;102276.03;146605;590;47008;-66
2022/03/27 06:01:27;;;;;;;;;53.25;42.75;;;;;14.24;50.49;102278.66;146605;570;46016;-67
2022/03/27 06:04:19;;;;;;;;;52.75;42.50;;;;;14.26;50.64;102283.12;146606;607;46008;-69
2022/03/27 06:07:12;;;;;;;;;51.25;41.25;;;;;14.24;50.37;102284.75;146605;588;46017;-70
2022/03/27 06:10:04;;;;;;;;;49.25;39.25;;;;;14.20;50.77;102294.87;146605;569;47008;-69
2022/03/27 06:12:57;;;;;;;;;51.50;43.25;;;;;14.13;51.05;102292.72;146602;584;46016;-74
2022/03/27 06:15:51;;;;;;;;;61.25;48.25;;;;;14.09;51.27;102295.13;146605;579;46008;-68
2022/03/27 06:18:43;;;;;;;;;61.50;49.50;;;;;14.12;51.42;102302.25;146603;576;46010;-69
2022/03/27 06:21:35;;;;;;;;;59.75;48.00;;;;;14.17;51.63;102300.81;146605;572;46021;-70
2022/03/27 06:24:28;;;;;;;;;54.25;44.00;;;;;14.29;50.92;102301.56;146603;563;46911;-69
2022/03/27 06:27:20;;;;;;;;;53.25;42.75;;;;;14.42;51.35;102292.78;146607;582;46020;-71
2022/03/27 06:30:15;;;;;;;;;65.50;51.25;;;;;14.64;51.30;102300.25;146604;669;46016;-70
2022/03/27 06:33:07;;;;;;;;;55.00;42.75;;;;;14.87;50.73;102298.09;146605;607;46008;-72
2022/03/27 06:36:01;;;;;;;;;49.25;40.75;;;;;15.11;50.47;102309.06;146604;566;46912;-71
2022/03/27 06:38:53;;;;;;;;;47.25;38.25;;;;;15.23;49.57;102305.47;146607;618;47008;-71
2022/03/27 06:41:46;;;;;;;;;37.50;31.75;;;;;15.35;48.40;102314.81;146603;593;47010;-72
2022/03/27 06:44:37;;;;;;;;;34.75;32.00;;;;;15.46;47.95;102312.00;146608;739;46021;-72
2022/03/27 06:47:32;;;;;;;;;40.50;33.50;;;;;15.60;48.18;102312.75;146602;592;47912;-72
2022/03/27 06:50:25;;;;;;;;;43.75;35.50;;;;;15.74;48.01;102312.69;146606;564;46020;-72
2022/03/27 06:53:20;;;;;;;;;42.50;34.75;;;;;15.84;47.37;102317.59;146606;593;45913;-72
2022/03/27 06:56:12;;;;;;;;;34.00;30.75;;;;;15.95;47.81;102316.47;146606;709;47008;-72
2022/03/27 06:59:04;;;;;;;;;38.00;33.50;;;;;16.11;47.05;102316.50;146603;613;46017;-72
2022/03/27 07:05:09;;;;;;;;;40.00;32.75;;;;;16.54;45.52;102324.03;146602;574;46016;-72
2022/03/27 07:08:01;;;;;;;;;37.50;30.50;;;;;16.66;44.89;102322.84;146608;615;46020;-72
2022/03/27 07:10:55;;;;;;;;;35.00;30.25;;;;;16.75;45.31;102321.63;146600;590;47010;-72
2022/03/27 07:13:48;;;;;;;;;39.50;33.50;;;;;16.91;45.07;102318.06;146607;585;46012;-74
2022/03/27 07:16:40;;;;;;;;;39.00;33.75;;;;;17.07;44.91;102324.97;146605;603;46010;-73
2022/03/27 07:19:31;;;;;;;;;29.75;27.00;;;;;17.19;44.33;102315.09;146605;570;46020;-73
2022/03/27 07:22:24;;;;;;;;;43.00;35.50;;;;;17.33;45.06;102309.66;146602;638;46913;-73
2022/03/27 07:25:15;;;;;;;;;43.75;33.50;;;;;17.45;44.72;102315.50;146604;569;46020;-73
2022/03/27 07:28:09;;;;;;;;;38.25;31.50;;;;;17.59;43.77;102317.06;146606;731;46016;-74
2022/03/27 07:31:02;;;;;;;;;45.00;35.75;;;;;17.70;44.35;102323.72;146606;634;46008;-74
2022/03/27 07:33:55;;;;;;;;;45.75;37.00;;;;;17.88;44.67;102331.59;146604;626;46017;-73
2022/03/27 07:36:48;;;;;;;;;43.00;35.50;;;;;18.07;44.58;102328.09;146607;679;46020;-74
2022/03/27 07:39:40;;;;;;;;;42.00;32.75;;;;;18.21;43.54;102320.84;146604;635;46012;-72
2022/03/27 07:42:32;;;;;;;;;41.50;34.50;;;;;18.34;43.16;102328.44;146604;583;46021;-71
2022/03/27 07:45:26;;;;;;;;;45.50;35.00;;;;;18.39;42.81;102333.91;146603;581;47010;-71
2022/03/27 07:48:19;;;;;;;;;26.75;18.75;;;;;18.38;42.89;102335.66;146603;666;46020;-73
2022/03/27 07:51:11;;;;;;;;;39.50;33.75;;;;;18.49;42.86;102329.97;146601;715;47010;-72
2022/03/27 07:54:03;;;;;;;;;43.00;34.75;;;;;18.61;42.96;102328.78;146606;604;46008;-71
2022/03/27 07:56:55;;;;;;;;;47.50;38.00;;;;;18.76;42.94;102323.34;146607;570;45912;-75
2022/03/27 07:59:47;;;;;;;;;43.00;35.00;;;;;18.89;42.29;102328.28;146603;582;47008;-75
2022/03/27 08:02:40;;;;;;;;;45.00;37.50;;;;;18.97;42.13;102330.31;146605;563;46016;-74
2022/03/27 08:05:32;;;;;;;;;42.50;35.75;;;;;19.06;43.24;102334.25;146605;627;46021;-74
2022/03/27 08:08:24;;;;;;;;;47.50;37.50;;;;;19.21;43.16;102330.47;146601;613;47010;-73
2022/03/27 08:11:16;;;;;;;;;38.50;31.25;;;;;19.38;43.35;102326.81;146603;611;47008;-74
2022/03/27 08:14:08;;;;;;;;;46.50;39.00;;;;;19.42;42.10;102323.47;146603;628;47010;-74
2022/03/27 08:17:01;;;;;;;;;45.75;36.00;;;;;19.44;42.64;102334.03;146604;570;46020;-74
2022/03/27 08:19:54;;;;;;;;;41.75;33.00;;;;;19.37;43.35;102323.25;146603;635;46017;-73
2022/03/27 08:22:46;;;;;;;;;41.75;36.00;;;;;19.28;42.53;102328.16;146608;670;46026;-73
2022/03/27 08:28:50;;;;;;;;;49.50;40.00;;;;;19.26;42.90;102336.81;146605;606;47012;-75
2022/03/27 08:31:42;;;;;;;;;41.25;33.75;;;;;19.27;44.19;102322.84;146605;591;46010;-74
2022/03/27 08:34:35;;;;;;;;;39.00;32.50;;;;;19.29;45.39;102315.91;146608;612;46008;-73
2022/03/27 08:37:27;;;;;;;;;40.25;32.00;;;;;19.44;44.53;102320.88;146601;581;47010;-74
2022/03/27 08:40:21;;;;;;;;;44.25;34.75;;;;;19.57;42.78;102310.91;146607;563;45023;-78
2022/03/27 08:43:18;;;;;;;;;41.50;35.50;;;;;19.64;43.52;102304.19;146600;643;46913;-78
2022/03/27 08:46:10;;;;;;;;;35.75;32.25;;;;;19.75;43.34;102304.59;146601;576;46020;-77
2022/03/27 08:49:12;;;;;;;;;35.75;30.75;;;;;19.83;42.33;102303.16;146604;620;47010;-79
2022/03/27 08:52:35;;;;;;;;;42.00;36.00;;;;;19.05;42.68;102155.41;146604;581;47008;-77
2022/03/27 08:56:06;;;;;;;;;39.00;31.25;;;;;18.31;44.10;101988.69;146605;600;46016;-79
2022/03/27 08:59:00;;;;;;;;;32.25;29.25;;;;;20.19;41.92;102287.87;146607;571;46008;-77
2022/03/27 09:01:53;;;;;;;;;40.75;33.25;;;;;20.22;42.75;102285.34;146601;688;46912;-77
2022/03/27 09:04:46;;;;;;;;;38.75;32.75;;;;;20.33;41.97;102280.47;146606;590;47008;-74
2022/03/27 09:07:38;;;;;;;;;35.50;31.25;;;;;20.41;42.70;102280.75;146602;630;46016;-76
2022/03/27 09:10:30;;;;;;;;;38.75;29.25;;;;;20.56;41.99;102270.78;146606;564;46020;-76
2022/03/27 09:13:23;;;;;;;;;36.50;31.75;;;;;20.72;42.08;102274.84;146604;579;46017;-76
2022/03/27 09:16:16;;;;;;;;;34.00;30.50;;;;;19.23;42.31;102003.63;146604;595;46020;-81
2022/03/27 09:19:08;;;;;;;;;36.25;30.75;;;;;20.84;41.51;102269.06;146601;579;47913;-79
2022/03/27 09:22:06;;;;;;;;;37.75;33.00;;;;;20.84;41.62;102264.72;146607;574;46008;-75
2022/03/27 09:25:07;;;;;;;;;33.50;30.75;;;;;20.90;42.04;102269.28;146604;573;46016;-76
2022/03/27 09:28:01;;;;;;;;;33.50;30.00;;;;;20.17;44.81;102120.09;146607;581;46008;-83
2022/03/27 09:30:54;;;;;;;;;32.50;28.75;;;;;21.12;43.29;102263.87;146603;569;46025;-82
2022/03/27 09:33:52;;;;;;;;;40.00;31.50;;;;;21.30;43.06;102263.56;146607;599;46021;-77
2022/03/27 09:36:49;;;;;;;;;40.00;34.00;;;;;21.28;43.87;102260.00;146604;708;46016;-75
2022/03/27 09:39:58;;;;;;;;;41.25;33.00;;;;;21.16;44.91;102259.59;146606;603;46020;-76
2022/03/27 09:42:50;;;;;;;;;34.50;30.25;;;;;21.04;45.31;102253.94;146602;604;46016;-76
2022/03/27 09:45:42;;;;;;;;;38.00;31.75;;;;;20.90;45.58;102257.00;146605;603;46008;-75
2022/03/27 09:48:35;;;;;;;;;46.50;37.50;;;;;20.63;45.33;102256.09;146601;602;47011;-75
2022/03/27 09:51:27;;;;;;;;;48.75;39.50;;;;;20.34;46.08;102252.38;146607;594;46008;-76
2022/03/27 09:54:19;;;;;;;;;43.25;35.25;;;;;20.14;46.38;102252.56;146606;576;46017;-74
2022/03/27 09:57:41;;;;;;;;;52.25;40.75;;;;;18.04;46.30;101933.34;146608;631;46008;-73
2022/03/27 10:00:33;;;;;;;;;44.75;37.00;;;;;19.70;46.80;102250.91;146603;569;46010;-74
2022/03/27 10:03:25;;;;;;;;;45.75;36.50;;;;;19.62;47.24;102242.66;146607;590;47009;-76
2022/03/27 10:06:34;;;;;;;;;43.75;35.50;;;;;19.69;47.31;102236.87;146602;617;47010;-76
2022/03/27 10:09:26;;;;;;;;;43.00;35.25;;;;;19.84;47.00;102232.19;146608;583;46008;-77
2022/03/27 10:12:19;;;;;;;;;37.25;32.25;;;;;19.98;46.26;102229.16;146604;563;46016;-77
2022/03/27 10:15:17;;;;;;;;;43.75;34.50;;;;;19.94;46.69;102219.34;146605;611;46029;-75
2022/03/27 10:18:17;;;;;;;;;39.00;34.75;;;;;19.87;47.08;102218.19;146603;575;46017;-76
2022/03/27 10:21:09;;;;;;;;;45.25;36.75;;;;;19.78;46.27;102216.16;146607;569;46008;-79
2022/03/27 10:24:20;;;;;;;;;49.75;38.75;;;;;19.73;46.47;102211.56;146603;605;46016;-75
2022/03/27 10:27:12;;;;;;;;;45.50;38.25;;;;;19.74;46.30;102210.69;146607;584;46034;-76
2022/03/27 10:30:05;;;;;;;;;47.25;38.25;;;;;19.71;46.85;102200.06;146604;692;47010;-76
2022/03/27 10:33:00;;;;;;;;;49.00;39.00;;;;;19.74;45.76;102208.06;146608;576;46021;-77
2022/03/27 10:36:18;;;;;;;;;45.25;38.00;;;;;19.84;46.19;102199.66;146599;693;47912;-76
2022/03/27 10:39:40;;;;;;;;;40.00;33.25;;;;;19.90;45.50;102199.91;146607;573;46021;-76
2022/03/27 10:43:14;;;;;;;;;37.50;32.50;;;;;18.72;46.00;101979.78;146605;592;46010;-76
2022/03/27 10:46:37;;;;;;;;;49.25;39.00;;;;;19.12;45.49;102023.34;146605;623;46008;-77
2022/03/27 10:49:29;;;;;;;;;48.25;38.25;;;;;20.23;44.78;102188.78;146601;724;46033;-76
2022/03/27 10:52:21;;;;;;;;;38.25;32.25;;;;;20.35;44.90;102175.16;146604;581;46020;-78
2022/03/27 10:55:19;;;;;;;;;39.75;32.00;;;;;20.55;44.51;102174.09;146601;616;47012;-78
2022/03/27 10:58:42;;;;;;;;;31.25;25.50;;;;;20.75;42.23;102185.31;146607;586;46020;-77
2022/03/27 11:01:51;;;;;;;;;36.75;30.00;;;;;20.82;43.34;102183.78;146599;572;47012;-77
2022/03/27 11:04:44;;;;;;;;;30.75;28.75;;;;;19.10;42.47;101906.75;146604;590;47012;-78
2022/03/27 11:07:36;;;;;;;;;35.75;32.00;;;;;20.66;43.34;102182.37;146602;612;46010;-78
2022/03/27 11:10:45;;;;;;;;;36.25;29.50;;;;;20.66;43.06;102175.38;146604;578;46021;-77
2022/03/27 11:13:43;;;;;;;;;34.00;29.75;;;;;20.62;42.11;102175.19;146606;601;46012;-77
2022/03/27 11:16:37;;;;;;;;;32.75;31.50;;;;;20.59;42.00;102180.38;146603;581;47012;-78
2022/03/27 11:19:49;;;;;;;;;35.75;31.00;;;;;20.48;42.19;102170.34;146602;572;47010;-77
2022/03/27 11:23:26;;;;;;;;;40.25;33.25;;;;;20.52;42.91;102160.81;146607;585;46008;-77
2022/03/27 11:26:43;;;;;;;;;46.50;34.75;;;;;20.02;42.69;102028.31;146603;700;46010;-78
2022/03/27 11:29:35;;;;;;;;;43.75;35.25;;;;;20.80;40.58;102161.72;146605;627;46008;-77
2022/03/27 11:32:31;;;;;;;;;43.50;35.00;;;;;20.73;42.35;102148.34;146602;593;46017;-78
2022/03/27 11:35:23;;;;;;;;;38.25;32.25;;;;;20.74;42.97;102142.22;146604;600;46008;-78
2022/03/27 11:38:27;;;;;;;;;40.75;34.00;;;;;20.67;42.36;102147.25;146606;565;46016;-78
2022/03/27 11:41:44;;;;;;;;;42.00;32.75;;;;;20.65;41.65;102147.19;146606;665;46020;-78
2022/03/27 11:47:50;;;;;;;;;34.75;30.00;;;;;20.71;40.22;102133.34;146606;587;46008;-78
2022/03/27 11:50:42;;;;;;;;;34.50;30.50;;;;;20.75;39.95;102129.97;146600;591;46016;-77
2022/03/27 11:53:38;;;;;;;;;38.75;33.25;;;;;20.83;40.81;102135.47;146602;574;46021;-77
2022/03/27 11:56:31;;;;;;;;;39.25;32.50;;;;;20.92;39.33;102125.22;146599;630;47010;-76
2022/03/27 11:59:26;;;;;;;;;42.50;33.25;;;;;21.02;39.93;102122.00;146608;648;45020;-76
2022/03/27 12:02:19;;;;;;;;;42.75;33.25;;;;;21.21;40.50;102119.09;146603;639;46913;-78
2022/03/27 12:05:11;;;;;;;;;43.25;33.25;;;;;21.26;39.06;102123.59;146608;674;46020;-77
2022/03/27 12:08:03;;;;;;;;;41.50;35.50;;;;;21.33;39.03;102117.66;146600;584;46017;-78
2022/03/27 12:10:57;;;;;;;;;42.75;34.00;;;;;21.49;40.35;102121.66;146606;692;46008;-77
2022/03/27 12:13:49;;;;;;;;;40.25;33.00;;;;;21.64;38.59;102109.78;146603;625;46016;-76
2022/03/27 12:16:47;;;;;;;;;42.25;32.25;;;;;21.80;39.14;102110.22;146603;616;47008;-79
2022/03/27 12:19:39;;;;;;;;;36.25;31.50;;;;;21.96;37.90;102104.47;146600;598;47012;-77
2022/03/27 12:22:51;;;;;;;;;35.25;32.00;;;;;22.06;39.21;102106.53;146606;575;46008;-78
2022/03/27 12:25:44;;;;;;;;;28.50;27.50;;;;;22.09;35.40;102103.09;146604;640;46012;-76
2022/03/27 12:31:46;;;;;;;;;39.00;32.25;;;;;21.96;36.65;102088.63;146602;577;46017;-78
2022/03/27 12:34:45;;;;;;;;;36.50;32.25;;;;;22.03;38.53;102081.78;146604;588;46020;-79
2022/03/27 12:37:47;;;;;;;;;38.00;32.00;;;;;21.95;36.87;102086.84;146605;566;46010;-77
2022/03/27 12:40:49;;;;;;;;;37.00;31.00;;;;;21.82;36.57;102084.75;146608;591;46008;-76
2022/03/27 12:44:01;;;;;;;;;40.50;33.25;;;;;21.67;36.57;102079.94;146602;608;46012;-78
2022/03/27 12:46:55;;;;;;;;;43.00;33.50;;;;;21.57;38.65;102070.00;146601;625;47008;-77
2022/03/27 12:49:54;;;;;;;;;35.50;31.50;;;;;21.59;38.56;102061.28;146603;576;47010;-77
2022/03/27 12:52:51;;;;;;;;;33.50;31.50;;;;;21.63;38.55;102056.97;146607;573;46021;-78
2022/03/27 12:56:19;;;;;;;;;25.25;24.50;;;;;21.73;36.31;102055.47;146603;611;46016;-77
2022/03/27 12:59:24;;;;;;;;;32.25;26.25;;;;;21.76;32.99;102048.53;146606;579;46020;-77
2022/03/27 13:02:31;;;;;;;;;26.75;24.75;;;;;21.68;31.80;102043.06;146605;593;46012;-77
2022/03/27 13:05:31;;;;;;;;;21.00;20.50;;;;;21.59;33.76;102042.81;146606;584;46026;-77
2022/03/27 13:08:34;;;;;;;;;25.50;24.50;;;;;20.72;35.52;101892.66;146600;655;46017;-78
2022/03/27 13:11:27;;;;;;;;;24.00;20.00;;;;;21.53;35.24;102049.66;146608;584;46008;-77
2022/03/27 13:14:20;;;;;;;;;28.50;22.00;;;;;21.60;33.03;102052.50;146603;663;46010;-79
2022/03/27 13:17:18;;;;;;;;;19.25;15.50;;;;;21.61;33.02;102022.59;146603;697;46008;-77
2022/03/27 13:20:11;;;;;;;;;23.25;20.50;;;;;21.80;34.43;102046.84;146603;638;47010;-78
2022/03/27 13:23:04;;;;;;;;;23.50;22.50;;;;;21.84;32.42;102043.47;146609;655;46008;-77
2022/03/27 13:25:58;;;;;;;;;22.00;20.25;;;;;21.85;30.97;102032.91;146605;616;46031;-77
2022/03/27 13:28:50;;;;;;;;;23.25;21.75;;;;;21.78;30.25;102040.66;146608;606;46020;-78
2022/03/27 13:31:43;;;;;;;;;22.50;21.00;;;;;21.60;31.28;102033.13;146605;622;46028;-77